Time;durP1;ratioP1;P1;durP2;ratioP2;P2;SDS_P1;SDS_P2;PMS_P1;PMS_P2;Temp;Humidity;BMP_temperature;BMP_pressure;BME280_temperature;BME280_humidity;BME280_pressure;Samples;Min_cycle;Max_cycle;Signal;HPM_P1;HPM_P2
2022/10/15 00:00:34;;;;;;;4.20;3.05;;;;;;;11.39;65.04;95055.75;5079255;28;20028;-70
2022/10/15 00:02:59;;;;;;;4.55;3.10;;;;;;;11.43;65.07;95067.59;5122935;28;20042;-70
2022/10/15 00:05:25;;;;;;;4.93;3.40;;;;;;;11.36;65.33;95056.03;5105504;28;20024;-70
2022/10/15 00:07:51;;;;;;;4.13;2.95;;;;;;;11.45;65.50;95064.84;5088097;28;20068;-70
2022/10/15 00:10:16;;;;;;;5.13;3.20;;;;;;;11.51;65.55;95067.78;5105672;28;20499;-70
2022/10/15 00:12:42;;;;;;;4.93;2.95;;;;;;;11.52;65.46;95045.19;5122656;28;20039;-70
2022/10/15 00:15:08;;;;;;;4.45;3.00;;;;;;;11.62;65.40;95066.91;5088473;28;20027;-70
2022/10/15 00:17:34;;;;;;;4.32;3.05;;;;;;;11.54;65.58;95051.09;5088766;28;20495;-70
2022/10/15 00:19:59;;;;;;;5.28;3.22;;;;;;;11.66;65.35;95057.88;5076342;28;20032;-70
2022/10/15 00:22:25;;;;;;;4.30;3.17;;;;;;;11.58;65.77;95044.66;5074820;28;20032;-70
2022/10/15 00:24:50;;;;;;;3.40;2.83;;;;;;;11.48;65.50;95029.00;5126270;27;20039;-70
2022/10/15 00:27:16;;;;;;;5.43;2.90;;;;;;;11.68;65.74;95063.78;5092848;28;20065;-70
2022/10/15 00:29:41;;;;;;;3.83;3.05;;;;;;;11.62;66.44;95043.47;5092945;28;20035;-70
2022/10/15 00:32:07;;;;;;;4.55;3.25;;;;;;;11.76;65.58;95057.94;5088342;28;20037;-70
2022/10/15 00:34:32;;;;;;;4.90;3.08;;;;;;;11.73;65.72;95052.97;5088946;28;20482;-70
2022/10/15 00:36:57;;;;;;;4.38;2.70;;;;;;;11.76;65.75;95047.53;5091208;28;20463;-70
2022/10/15 00:39:23;;;;;;;4.60;3.20;;;;;;;11.64;66.19;95025.94;5092914;28;20032;-70
2022/10/15 00:41:48;;;;;;;5.40;3.40;;;;;;;11.78;65.47;95037.78;5073862;28;20455;-70
2022/10/15 00:44:20;;;;;;;4.45;3.45;;;;;;;11.85;65.33;95033.75;5092794;28;20028;-70
2022/10/15 00:46:46;;;;;;;8.38;3.80;;;;;;;11.73;64.98;95025.19;5092478;28;20047;-70
2022/10/15 00:49:17;;;;;;;5.78;3.50;;;;;;;11.76;65.21;95032.75;5071510;28;20036;-70
2022/10/15 00:51:48;;;;;;;5.60;3.55;;;;;;;11.76;65.75;95032.75;5085637;28;20044;-70
2022/10/15 00:54:13;;;;;;;4.53;3.30;;;;;;;11.74;66.31;95031.22;5074665;28;20513;-70
2022/10/15 00:56:39;;;;;;;5.85;3.72;;;;;;;11.71;66.04;95031.47;5091647;28;20028;-70
2022/10/15 00:59:04;;;;;;;5.82;3.58;;;;;;;11.69;66.20;95021.19;5073911;28;20530;-70
2022/10/15 01:01:30;;;;;;;5.63;3.72;;;;;;;11.74;66.28;95024.22;5074063;28;20024;-70
2022/10/15 01:03:55;;;;;;;6.20;4.00;;;;;;;11.69;66.21;95015.16;5090719;28;20028;-70
2022/10/15 01:06:21;;;;;;;5.40;3.47;;;;;;;11.80;65.56;95017.69;5090021;28;20058;-70
2022/10/15 01:08:46;;;;;;;5.40;3.53;;;;;;;11.75;65.98;95012.03;5091152;28;20119;-70
2022/10/15 01:11:15;;;;;;;6.20;3.75;;;;;;;11.80;65.73;95020.28;5070994;28;20521;-70
2022/10/15 01:13:43;;;;;;;5.60;3.55;;;;;;;11.77;65.28;95025.75;5090646;28;20028;-70
2022/10/15 01:16:26;;;;;;;4.57;3.85;;;;;;;11.78;65.60;95022.19;5091904;28;20039;-70
2022/10/15 01:19:13;;;;;;;4.78;3.90;;;;;;;11.67;65.64;95022.25;5091880;28;20067;-70
2022/10/15 01:22:01;;;;;;;7.30;3.88;;;;;;;11.66;65.80;95018.03;5092657;28;20032;-70
2022/10/15 01:24:39;;;;;;;6.88;4.03;;;;;;;11.60;66.12;95027.97;5059988;28;20032;-70
2022/10/15 01:27:13;;;;;;;5.25;4.07;;;;;;;11.53;66.20;95024.25;5106936;28;20047;-70
2022/10/15 01:30:17;;;;;;;5.13;3.80;;;;;;;11.44;66.86;95022.41;5086974;28;20437;-70
2022/10/15 01:33:04;;;;;;;6.80;3.70;;;;;;;11.26;67.39;95014.34;5084366;28;20101;-70
2022/10/15 01:35:35;;;;;;;5.45;3.70;;;;;;;11.16;67.73;95024.66;5091666;28;20441;-70
2022/10/15 01:38:04;;;;;;;;;;;;;;;11.22;67.53;95017.31;5124065;27;20035;-70
2022/10/15 01:40:32;;;;;;;5.25;4.40;;;;;;;11.29;67.42;95021.91;5091731;28;19927;-70
2022/10/15 01:43:38;;;;;;;5.25;4.30;;;;;;;11.24;67.59;95016.25;5107226;28;20550;-70
2022/10/15 01:46:06;;;;;;;5.78;4.30;;;;;;;11.14;67.71;95008.38;5090606;28;20040;-70
2022/10/15 01:48:31;;;;;;;7.03;4.70;;;;;;;11.29;67.60;95021.91;5090588;28;20444;-70
2022/10/15 01:50:59;;;;;;;5.40;4.13;;;;;;;11.38;67.16;95031.53;5070448;28;20082;-70
2022/10/15 01:53:25;;;;;;;5.13;4.40;;;;;;;11.43;67.35;95023.38;5072280;28;20036;-70
2022/10/15 01:55:53;;;;;;;4.68;4.20;;;;;;;11.46;66.89;95028.31;5090100;28;20043;-71
2022/10/15 01:58:18;;;;;;;5.18;4.05;;;;;;;11.52;67.05;95024.38;5107374;28;20505;-70
2022/10/15 02:00:44;;;;;;;4.88;4.30;;;;;;;11.54;66.86;95022.47;5056236;28;20032;-70
2022/10/15 02:03:09;;;;;;;5.72;4.43;;;;;;;11.50;66.98;95031.47;5091326;28;20035;-70
2022/10/15 02:05:38;;;;;;;6.25;4.57;;;;;;;11.49;67.17;95027.22;5091491;28;20032;-70
2022/10/15 02:08:13;;;;;;;5.40;4.50;;;;;;;11.40;67.25;95023.63;5107161;28;20036;-70
2022/10/15 02:10:51;;;;;;;5.35;4.22;;;;;;;11.40;67.42;95034.03;5123379;27;20513;-70
2022/10/15 02:13:28;;;;;;;5.07;4.28;;;;;;;11.45;67.50;95026.66;5091582;28;20473;-70
2022/10/15 02:16:10;;;;;;;6.72;4.22;;;;;;;11.44;67.29;95027.59;5090467;28;20036;-70
2022/10/15 02:18:44;;;;;;;4.78;4.20;;;;;;;11.50;67.37;95029.69;5071066;28;20510;-70
2022/10/15 02:21:15;;;;;;;4.97;4.20;;;;;;;11.44;67.42;95018.97;5089821;28;20060;-70
2022/10/15 02:23:51;;;;;;;5.50;4.28;;;;;;;11.54;67.03;95025.91;5102865;28;20413;-70
2022/10/15 02:26:16;;;;;;;6.07;4.53;;;;;;;11.59;67.42;95028.94;5089234;28;20408;-70
2022/10/15 02:28:44;;;;;;;6.10;4.35;;;;;;;11.70;66.50;95022.00;5106717;28;20118;-70
2022/10/15 02:31:09;;;;;;;5.22;4.20;;;;;;;11.66;66.58;95025.81;5072550;28;20032;-70
2022/10/15 02:33:35;;;;;;;4.95;4.03;;;;;;;11.67;66.42;95024.84;5123396;27;20119;-70
2022/10/15 02:36:00;;;;;;;5.93;4.15;;;;;;;11.66;66.60;95016.22;5069064;28;20029;-70
2022/10/15 02:38:26;;;;;;;4.68;3.97;;;;;;;11.65;66.51;95025.00;5098244;28;20036;-70
2022/10/15 02:40:51;;;;;;;5.63;4.22;;;;;;;11.58;66.79;95022.06;5088502;28;20047;-70
2022/10/15 02:43:18;;;;;;;5.45;4.35;;;;;;;11.46;67.04;95032.69;5088611;28;20589;-70
2022/10/15 02:45:44;;;;;;;5.65;4.10;;;;;;;11.33;67.49;95022.47;5105753;28;20493;-70
2022/10/15 02:48:09;;;;;;;6.00;4.50;;;;;;;11.32;67.58;95020.81;5085946;28;20047;-70
2022/10/15 02:50:35;;;;;;;6.40;4.28;;;;;;;11.24;67.55;95000.66;5085080;28;20028;-70
2022/10/15 02:53:01;;;;;;;5.28;4.63;;;;;;;11.37;67.78;95023.88;5090984;28;20040;-70
2022/10/15 02:55:26;;;;;;;4.72;4.22;;;;;;;11.37;67.42;95019.50;5088444;28;20024;-70
2022/10/15 02:57:52;;;;;;;4.93;4.28;;;;;;;11.43;67.28;95023.38;5090767;28;20201;-70
2022/10/15 03:00:17;;;;;;;5.43;4.43;;;;;;;11.28;67.57;95022.88;5089670;28;20036;-70
2022/10/15 03:02:43;;;;;;;6.03;4.30;;;;;;;11.25;67.62;95025.69;5088942;28;20115;-70
2022/10/15 03:05:09;;;;;;;4.72;4.20;;;;;;;11.24;67.83;95025.81;5123069;27;20098;-70
2022/10/15 03:07:34;;;;;;;4.70;4.05;;;;;;;11.25;67.59;95030.06;5089303;28;20493;-70
2022/10/15 03:10:00;;;;;;;7.13;4.55;;;;;;;11.35;67.41;95025.78;5068752;28;20031;-70
2022/10/15 03:12:25;;;;;;;5.38;4.63;;;;;;;11.33;67.31;95025.06;5087026;28;20501;-70
2022/10/15 03:14:51;;;;;;;4.50;3.78;;;;;;;11.37;67.28;95023.88;5088950;28;20028;-70
2022/10/15 03:17:17;;;;;;;4.38;3.90;;;;;;;11.19;67.77;95021.81;5105370;28;20497;-70
2022/10/15 03:19:42;;;;;;;5.22;3.72;;;;;;;11.03;68.03;94997.19;5090026;28;20032;-70
2022/10/15 03:22:08;;;;;;;4.60;3.90;;;;;;;11.16;67.96;95027.25;5088793;28;20501;-70
2022/10/15 03:24:33;;;;;;;5.55;4.13;;;;;;;11.25;67.69;95019.66;5089295;28;20047;-70
2022/10/15 03:26:59;;;;;;;5.25;4.38;;;;;;;11.18;67.64;95014.97;5089968;28;20040;-70
2022/10/15 03:29:24;;;;;;;4.70;4.03;;;;;;;11.21;67.62;95019.09;5123340;28;20032;-70
2022/10/15 03:31:49;;;;;;;5.50;3.85;;;;;;;11.16;67.76;95003.88;5087838;28;20025;-70
2022/10/15 03:34:15;;;;;;;7.10;4.00;;;;;;;11.17;67.33;95013.34;5071843;28;20489;-70
2022/10/15 03:36:40;;;;;;;4.78;4.05;;;;;;;11.27;67.37;95033.38;5088294;28;20161;-70
2022/10/15 03:39:07;;;;;;;5.70;3.85;;;;;;;11.35;67.07;95030.97;5090008;28;20409;-70
2022/10/15 03:41:32;;;;;;;4.45;3.70;;;;;;;11.31;67.10;95029.56;5089897;28;20031;-70
2022/10/15 03:44:02;;;;;;;4.70;3.90;;;;;;;11.23;67.11;95024.16;5088169;28;20036;-70
2022/10/15 03:46:27;;;;;;;6.43;4.32;;;;;;;11.27;67.32;95028.19;5088887;28;20051;-70
2022/10/15 03:48:53;;;;;;;5.88;3.90;;;;;;;11.32;66.99;95026.84;5105168;28;20043;-70
2022/10/15 03:51:18;;;;;;;4.75;3.78;;;;;;;11.33;66.97;95023.28;5105966;28;20093;-70
2022/10/15 03:53:43;;;;;;;6.90;3.95;;;;;;;11.18;67.29;95029.75;5088685;28;20040;-70
2022/10/15 03:56:09;;;;;;;6.15;4.35;;;;;;;11.18;67.11;95030.56;5094069;28;20035;-70
2022/10/15 03:58:34;;;;;;;6.25;4.05;;;;;;;11.18;66.91;95021.97;5126532;27;20028;-70
2022/10/15 04:01:00;;;;;;;4.50;3.83;;;;;;;11.25;66.73;95019.66;5075262;28;20043;-70
2022/10/15 04:03:25;;;;;;;5.55;3.65;;;;;;;11.27;67.03;95022.97;5092163;28;20032;-70
2022/10/15 04:05:51;;;;;;;4.60;4.07;;;;;;;11.26;66.94;95036.94;5093729;28;20032;-70
2022/10/15 04:08:17;;;;;;;5.93;4.03;;;;;;;11.22;67.20;95035.53;5093853;28;20503;-70
2022/10/15 04:10:42;;;;;;;5.00;4.18;;;;;;;11.16;67.15;95045.47;5091907;28;20119;-70
2022/10/15 04:13:08;;;;;;;5.32;4.53;;;;;;;11.09;67.11;95033.94;5090889;28;20037;-70
2022/10/15 04:15:33;;;;;;;4.25;3.80;;;;;;;10.99;67.31;95030.44;5092529;28;20028;-70
2022/10/15 04:17:58;;;;;;;5.57;4.15;;;;;;;10.73;67.76;95011.75;5093331;28;20052;-70
2022/10/15 04:20:24;;;;;;;5.07;4.22;;;;;;;10.65;68.02;95022.75;5093629;28;20028;-70
2022/10/15 04:22:49;;;;;;;7.25;4.80;;;;;;;10.57;68.15;95030.31;5093733;28;20379;-70
2022/10/15 04:25:15;;;;;;;5.47;4.25;;;;;;;10.56;67.92;95039.06;5125304;27;20094;-70
2022/10/15 04:27:41;;;;;;;8.57;4.38;;;;;;;10.44;68.06;95034.81;5092053;28;20405;-70
2022/10/15 04:30:07;;;;;;;4.75;4.22;;;;;;;10.39;68.44;95037.81;5093276;28;20028;-70
2022/10/15 04:32:32;;;;;;;6.65;4.20;;;;;;;10.20;69.29;95040.97;5091958;28;20035;-70
2022/10/15 04:34:58;;;;;;;5.63;4.32;;;;;;;10.37;68.83;95050.06;5091920;28;20040;-70
2022/10/15 04:37:23;;;;;;;9.38;5.00;;;;;;;10.36;69.13;95042.38;5093162;28;20040;-70
2022/10/15 04:39:49;;;;;;;5.90;3.70;;;;;;;10.35;69.00;95035.56;5126342;27;20028;-70
2022/10/15 04:42:14;;;;;;;5.82;4.00;;;;;;;10.42;69.25;95044.50;5092773;28;20043;-70
2022/10/15 04:44:40;;;;;;;4.80;3.90;;;;;;;10.45;69.20;95046.88;5093016;28;20031;-70
2022/10/15 04:47:05;;;;;;;5.15;4.25;;;;;;;10.54;68.87;95046.16;5092763;28;20039;-70
2022/10/15 04:49:30;;;;;;;6.28;4.40;;;;;;;10.43;69.11;95043.56;5093015;28;20039;-70
2022/10/15 04:51:56;;;;;;;5.15;4.05;;;;;;;10.44;69.37;95056.41;5089945;28;20032;-70
2022/10/15 04:54:21;;;;;;;5.43;4.05;;;;;;;10.44;69.54;95059.00;5105253;28;20028;-71
2022/10/15 04:56:47;;;;;;;5.32;4.43;;;;;;;10.29;69.93;95055.84;5078120;28;20040;-70
2022/10/15 04:59:12;;;;;;;5.18;3.80;;;;;;;10.35;69.75;95044.16;5074554;28;20029;-70
2022/10/15 05:01:38;;;;;;;6.80;5.20;;;;;;;10.52;69.75;95056.66;5107772;28;20047;-70
2022/10/15 05:04:03;;;;;;;5.20;4.60;;;;;;;10.56;69.62;95062.44;5089738;28;20034;-70
2022/10/15 05:06:30;;;;;;;6.35;4.82;;;;;;;10.48;69.74;95060.44;5091175;28;20028;-70
2022/10/15 05:08:56;;;;;;;6.05;4.53;;;;;;;10.56;69.80;95061.59;5107695;28;20024;-70
2022/10/15 05:11:23;;;;;;;6.38;4.35;;;;;;;10.65;69.46;95063.50;5092606;28;20032;-70
2022/10/15 05:13:48;;;;;;;5.63;5.00;;;;;;;10.69;69.27;95063.09;5124812;27;20468;-70
2022/10/15 05:16:15;;;;;;;7.22;4.78;;;;;;;10.75;69.56;95069.59;5108288;28;20031;-70
2022/10/15 05:18:41;;;;;;;5.72;4.40;;;;;;;10.77;69.78;95072.91;5092311;28;20056;-70
2022/10/15 05:21:06;;;;;;;4.95;4.05;;;;;;;10.74;70.16;95076.56;5090717;28;20100;-70
2022/10/15 05:23:32;;;;;;;5.88;4.45;;;;;;;10.62;70.29;95074.13;5087928;28;20112;-70
2022/10/15 05:26:04;;;;;;;6.55;5.57;;;;;;;10.59;70.23;95085.59;5108983;27;20173;-70
2022/10/15 05:28:30;;;;;;;7.32;5.68;;;;;;;10.56;69.96;95067.66;5091292;28;20405;-70
2022/10/15 05:30:55;;;;;;;8.68;6.38;;;;;;;10.54;70.13;95077.31;5090463;28;20055;-70
2022/10/15 05:33:21;;;;;;;8.18;5.72;;;;;;;10.66;69.91;95083.31;5091414;28;20028;-70
2022/10/15 05:35:47;;;;;;;9.20;5.20;;;;;;;10.82;69.92;95085.53;5089331;28;20029;-70
2022/10/15 05:38:12;;;;;;;7.03;5.32;;;;;;;10.86;69.78;95081.72;5092310;28;20035;-70
2022/10/15 05:40:37;;;;;;;7.55;5.10;;;;;;;10.98;69.82;95085.97;5091674;28;20403;-70
2022/10/15 05:43:03;;;;;;;9.73;5.80;;;;;;;10.99;69.84;95090.22;5089625;28;20406;-70
2022/10/15 05:45:28;;;;;;;7.45;5.70;;;;;;;10.78;69.86;95052.94;5092170;28;20103;-70
2022/10/15 05:47:54;;;;;;;7.82;6.00;;;;;;;11.04;69.81;95093.28;5073514;28;20040;-70
2022/10/15 05:50:21;;;;;;;7.55;6.22;;;;;;;11.20;69.27;95095.47;5073389;28;20032;-70
2022/10/15 05:52:46;;;;;;;8.48;6.43;;;;;;;11.29;68.87;95092.13;5124177;27;20452;-70
2022/10/15 05:55:12;;;;;;;8.48;6.78;;;;;;;11.34;68.84;95107.34;5090371;28;20085;-70
2022/10/15 05:57:37;;;;;;;9.40;7.63;;;;;;;11.38;68.82;95108.75;5090004;28;20032;-70
2022/10/15 06:00:04;;;;;;;11.05;7.05;;;;;;;11.34;69.09;95100.38;5073363;28;20020;-70
2022/10/15 06:02:30;;;;;;;7.32;6.63;;;;;;;11.37;68.68;95112.31;5091617;28;20055;-70
2022/10/15 06:04:55;;;;;;;10.52;7.53;;;;;;;11.40;68.50;95110.28;5091834;28;20485;-70
2022/10/15 06:07:20;;;;;;;12.38;8.73;;;;;;;11.44;68.50;95113.44;5091941;28;20543;-70
2022/10/15 06:09:46;;;;;;;12.80;8.45;;;;;;;11.39;68.13;95110.38;5091999;28;20547;-70
2022/10/15 06:12:11;;;;;;;11.63;8.35;;;;;;;11.43;68.21;95110.97;5073284;28;20040;-70
2022/10/15 06:14:37;;;;;;;10.73;8.48;;;;;;;11.44;68.31;95113.44;5091509;28;20043;-70
2022/10/15 06:17:02;;;;;;;10.35;7.97;;;;;;;11.45;67.95;95107.31;5090977;28;20052;-70
2022/10/15 06:19:28;;;;;;;8.18;6.63;;;;;;;11.58;68.09;95114.91;5091692;28;20028;-70
2022/10/15 06:21:53;;;;;;;9.00;6.90;;;;;;;11.62;67.68;95109.34;5090038;28;20036;-70
2022/10/15 06:24:19;;;;;;;9.93;6.82;;;;;;;11.78;67.22;95101.13;5090415;28;20077;-70
2022/10/15 06:26:44;;;;;;;12.73;7.25;;;;;;;11.96;66.91;95119.59;5091379;28;20039;-70
2022/10/15 06:29:09;;;;;;;10.73;7.57;;;;;;;12.00;66.91;95126.19;5090362;28;20035;-70
2022/10/15 06:31:35;;;;;;;12.85;11.32;;;;;;;12.13;66.26;95125.19;5073359;28;20024;-70
2022/10/15 06:34:00;;;;;;;18.88;16.27;;;;;;;12.17;65.82;95134.38;5091286;28;20028;-70
2022/10/15 06:36:26;;;;;;;10.88;7.63;;;;;;;12.27;65.57;95136.06;5091297;28;20020;-70
2022/10/15 06:38:51;;;;;;;8.15;5.53;;;;;;;12.31;64.59;95115.78;5091306;28;20024;-72
2022/10/15 06:41:17;;;;;;;5.60;5.00;;;;;;;12.59;64.69;95132.53;5089929;28;20561;-71
2022/10/15 06:43:43;;;;;;;5.10;4.05;;;;;;;12.71;63.52;95120.22;5091665;28;20032;-71
2022/10/15 06:46:09;;;;;;;4.68;4.20;;;;;;;13.32;61.99;95138.34;5090094;28;20421;-71
2022/10/15 06:48:34;;;;;;;6.53;4.40;;;;;;;14.31;58.92;95122.44;5091535;28;20042;-71
2022/10/15 06:51:00;;;;;;;5.07;3.85;;;;;;;15.37;55.72;95135.97;5090227;28;20035;-71
2022/10/15 06:53:26;;;;;;;5.15;4.22;;;;;;;16.34;53.02;95131.72;5073089;28;20104;-72
2022/10/15 06:55:56;;;;;;;6.13;4.13;;;;;;;17.40;50.03;95135.63;5089756;28;20032;-72
2022/10/15 06:58:21;;;;;;;4.78;4.25;;;;;;;17.92;48.56;95121.44;5073142;28;20064;-72
2022/10/15 07:00:46;;;;;;;9.00;4.45;;;;;;;18.64;46.39;95126.75;5090134;28;20547;-71
2022/10/15 07:03:12;;;;;;;6.45;4.60;;;;;;;18.54;45.57;95116.41;5089757;28;20505;-70
2022/10/15 07:05:37;;;;;;;8.70;4.85;;;;;;;18.60;45.39;95130.69;5089770;28;20409;-70
2022/10/15 07:08:03;;;;;;;6.03;4.20;;;;;;;19.27;44.59;95129.47;5089696;28;20413;-71
2022/10/15 07:10:29;;;;;;;8.43;4.32;;;;;;;19.11;43.55;95127.72;5089535;28;20032;-70
2022/10/15 07:12:54;;;;;;;5.72;4.15;;;;;;;19.82;42.58;95129.31;5123808;28;20043;-71
2022/10/15 07:15:20;;;;;;;6.63;4.25;;;;;;;20.69;39.93;95133.34;5090937;28;20016;-70
2022/10/15 07:17:49;;;;;;;4.72;4.05;;;;;;;21.48;38.62;95127.44;5089458;28;20107;-71
2022/10/15 07:20:15;;;;;;;5.47;4.28;;;;;;;21.70;38.02;95136.19;5106326;28;20028;-71
2022/10/15 07:22:40;;;;;;;5.35;4.18;;;;;;;21.96;36.83;95125.09;5089999;28;20543;-71
2022/10/15 07:25:06;;;;;;;5.72;4.15;;;;;;;21.05;38.53;95129.94;5072823;28;20514;-71
2022/10/15 07:27:31;;;;;;;11.02;4.45;;;;;;;20.05;40.21;95134.56;5089491;28;20044;-71
2022/10/15 07:29:57;;;;;;;5.55;4.20;;;;;;;20.13;39.38;95138.13;5093517;28;20036;-71
2022/10/15 07:32:22;;;;;;;5.95;4.55;;;;;;;21.29;38.24;95131.47;5093586;28;20032;-71
2022/10/15 07:34:48;;;;;;;5.25;4.07;;;;;;;21.45;37.52;95127.81;5095064;28;20016;-71
2022/10/15 07:37:13;;;;;;;5.03;3.80;;;;;;;20.75;38.98;95132.59;5093456;28;20513;-71
2022/10/15 07:39:38;;;;;;;5.60;4.03;;;;;;;20.12;39.69;95139.97;5094670;28;20536;-71
2022/10/15 07:42:04;;;;;;;5.85;4.10;;;;;;;19.40;41.32;95133.19;5076432;28;20046;-71
2022/10/15 07:44:29;;;;;;;5.07;4.03;;;;;;;18.75;42.79;95141.38;5093333;28;20032;-71
2022/10/15 07:46:55;;;;;;;5.25;4.38;;;;;;;20.26;39.96;95138.34;5094428;28;20039;-71
2022/10/15 07:49:20;;;;;;;6.75;4.78;;;;;;;21.07;38.69;95135.88;5093305;28;20035;-71
2022/10/15 07:51:45;;;;;;;6.45;4.60;;;;;;;21.63;37.36;95131.66;5094294;28;20032;-71
2022/10/15 07:54:11;;;;;;;7.22;5.50;;;;;;;20.68;38.75;95135.16;5093229;28;20035;-71
2022/10/15 07:56:36;;;;;;;5.65;3.92;;;;;;;19.82;40.39;95144.31;5094393;28;20023;-71
2022/10/15 07:59:02;;;;;;;5.15;3.80;;;;;;;19.59;40.23;95131.91;5093204;28;20032;-69
2022/10/15 08:01:27;;;;;;;6.43;3.80;;;;;;;19.61;40.57;95132.56;5092955;28;20024;-69
2022/10/15 08:03:53;;;;;;;5.50;4.20;;;;;;;19.79;39.98;95142.03;5092358;28;20028;-69
2022/10/15 08:06:18;;;;;;;5.47;4.10;;;;;;;18.76;42.17;95132.50;5090009;28;20040;-69
2022/10/15 08:08:44;;;;;;;5.03;3.83;;;;;;;18.78;42.68;95141.03;5071801;28;20040;-69
2022/10/15 08:11:13;;;;;;;7.07;4.25;;;;;;;18.90;42.14;95142.31;5084417;28;20035;-69
2022/10/15 08:13:41;;;;;;;5.10;3.80;;;;;;;18.63;42.96;95130.34;5075932;28;20043;-69
2022/10/15 08:16:07;;;;;;;8.43;4.03;;;;;;;18.79;42.75;95137.41;5075679;28;20036;-69
2022/10/15 08:18:32;;;;;;;5.88;4.03;;;;;;;18.64;43.06;95145.16;5093349;28;20132;-69
2022/10/15 08:20:59;;;;;;;6.93;4.03;;;;;;;18.48;42.51;95124.97;5092756;28;20040;-69
2022/10/15 08:23:24;;;;;;;6.30;3.88;;;;;;;17.96;43.94;95141.13;5092080;28;20040;-69
2022/10/15 08:25:50;;;;;;;5.13;4.10;;;;;;;17.44;45.13;95138.78;5093180;28;20032;-70
2022/10/15 08:28:15;;;;;;;5.45;3.80;;;;;;;17.21;46.17;95133.28;5125947;27;20088;-69
2022/10/15 08:30:41;;;;;;;6.07;3.75;;;;;;;17.33;46.33;95121.50;5092628;28;20476;-69
2022/10/15 08:33:06;;;;;;;5.60;3.83;;;;;;;17.62;45.20;95126.31;5091500;28;20501;-69
2022/10/15 08:35:37;;;;;;;5.57;3.83;;;;;;;17.40;45.19;95125.13;5092631;28;20473;-71
2022/10/15 08:38:03;;;;;;;7.00;4.57;;;;;;;17.26;45.71;95119.69;5093109;28;20040;-70
2022/10/15 08:40:29;;;;;;;6.97;4.10;;;;;;;16.70;46.57;95129.78;5125057;27;20028;-69
2022/10/15 08:42:54;;;;;;;5.78;4.07;;;;;;;16.65;47.03;95127.63;5109307;28;20029;-69
2022/10/15 08:45:31;;;;;;;5.07;3.70;;;;;;;16.94;45.84;95127.31;5092862;28;20035;-69
2022/10/15 08:48:20;;;;;;;6.43;4.15;;;;;;;16.95;45.90;95115.81;5081762;28;20502;-69
2022/10/15 08:50:59;;;;;;;5.43;3.55;;;;;;;17.00;45.94;95120.59;5095799;27;20032;-69
2022/10/15 08:53:24;;;;;;;4.28;3.58;;;;;;;17.17;45.66;95126.72;5092290;28;20032;-69
2022/10/15 08:55:52;;;;;;;4.50;3.47;;;;;;;16.88;45.76;95116.59;5093235;28;20035;-69
2022/10/15 08:58:22;;;;;;;5.72;4.18;;;;;;;16.48;46.40;95116.22;5075503;28;20093;-69
2022/10/15 09:00:57;;;;;;;4.80;3.85;;;;;;;16.42;46.84;95123.91;5075409;28;20063;-69
2022/10/15 09:03:25;;;;;;;6.35;3.78;;;;;;;16.78;46.09;95116.75;5075375;28;20071;-69
2022/10/15 09:06:13;;;;;;;5.70;3.97;;;;;;;16.81;46.78;95116.41;5093063;28;20103;-69
2022/10/15 09:09:13;;;;;;;4.85;3.95;;;;;;;17.07;45.99;95115.53;5078306;28;20391;-69
2022/10/15 09:12:03;;;;;;;7.05;5.32;;;;;;;17.10;45.99;95123.06;5092566;28;20406;-69
2022/10/15 09:14:31;;;;;;;7.45;5.00;;;;;;;16.92;45.34;95118.75;5092942;28;20027;-69
2022/10/15 09:16:58;;;;;;;5.15;3.83;;;;;;;16.78;45.19;95119.38;5092620;28;20496;-70
2022/10/15 09:19:24;;;;;;;6.15;4.20;;;;;;;16.87;45.04;95118.41;5074922;28;20456;-69
2022/10/15 09:21:50;;;;;;;8.50;4.93;;;;;;;17.01;44.89;95114.34;5074468;28;20032;-69
2022/10/15 09:24:26;;;;;;;5.78;4.63;;;;;;;17.03;44.50;95109.78;5092702;28;20055;-70
2022/10/15 09:27:13;;;;;;;5.28;3.75;;;;;;;17.12;44.77;95123.75;5074695;28;20039;-69
2022/10/15 09:29:52;;;;;;;5.72;3.88;;;;;;;17.02;43.92;95120.41;5092569;28;20039;-69
2022/10/15 09:32:20;;;;;;;7.60;4.30;;;;;;;17.14;44.12;95122.59;5075092;28;20024;-69
2022/10/15 09:34:55;;;;;;;6.45;3.70;;;;;;;16.94;43.96;95116.81;5074269;28;20039;-69
2022/10/15 09:37:29;;;;;;;5.80;3.97;;;;;;;16.71;43.79;95116.50;5092608;28;20033;-69
2022/10/15 09:40:04;;;;;;;7.55;5.80;;;;;;;16.72;44.14;95117.34;5074951;28;20052;-69
2022/10/15 09:42:37;;;;;;;4.85;3.92;;;;;;;16.50;44.26;95119.53;5092590;28;20044;-69
2022/10/15 09:45:09;;;;;;;5.05;3.97;;;;;;;16.49;43.71;95111.81;5091083;28;20107;-69
2022/10/15 09:47:35;;;;;;;4.72;3.90;;;;;;;16.45;44.08;95116.53;5091036;28;20051;-69
2022/10/15 09:50:04;;;;;;;5.15;4.05;;;;;;;16.50;44.06;95109.03;5074159;28;20035;-69
2022/10/15 09:52:48;;;;;;;4.60;3.75;;;;;;;16.52;44.41;95107.09;5090039;28;20374;-69
2022/10/15 09:55:33;;;;;;;5.70;3.97;;;;;;;16.42;44.53;95100.31;5092123;28;20063;-68
2022/10/15 09:58:05;;;;;;;4.57;3.67;;;;;;;16.43;43.71;95087.03;5090804;28;20035;-68
2022/10/15 10:00:49;;;;;;;4.50;3.72;;;;;;;16.66;44.46;95094.34;5074116;28;20391;-69
2022/10/15 10:03:15;;;;;;;7.03;4.30;;;;;;;16.56;43.71;95096.28;5092296;28;20032;-69
2022/10/15 10:05:40;;;;;;;5.65;3.58;;;;;;;16.42;43.43;95095.88;5107560;28;20031;-68
2022/10/15 10:08:15;;;;;;;4.50;3.47;;;;;;;16.35;43.57;95094.03;5090459;28;20032;-71
2022/10/15 10:10:41;;;;;;;12.18;9.68;;;;;;;16.43;43.70;95087.03;5074516;28;20036;-70
2022/10/15 10:13:21;;;;;;;6.50;4.68;;;;;;;16.68;43.44;95106.31;5090634;28;20379;-70
2022/10/15 10:15:46;;;;;;;9.52;5.10;;;;;;;16.80;43.50;95106.91;5074254;28;20066;-70
2022/10/15 10:18:20;;;;;;;6.15;4.40;;;;;;;17.12;43.23;95100.94;5073504;28;20060;-70
2022/10/15 10:21:00;;;;;;;8.68;4.57;;;;;;;17.37;41.84;95096.56;5090415;28;20020;-70
2022/10/15 10:23:37;;;;;;;6.40;4.07;;;;;;;17.31;41.42;95094.59;5074279;28;20047;-70
2022/10/15 10:26:04;;;;;;;10.85;7.03;;;;;;;17.47;40.86;95092.94;5090403;28;20039;-70
2022/10/15 10:28:51;;;;;;;6.88;4.50;;;;;;;17.41;40.79;95076.88;5090367;28;20040;-70
2022/10/15 10:31:16;;;;;;;8.98;5.20;;;;;;;17.35;41.03;95082.75;5090343;28;20047;-70
2022/10/15 10:33:44;;;;;;;13.20;8.40;;;;;;;17.37;41.78;95083.44;5073489;28;20525;-70
2022/10/15 10:36:25;;;;;;;20.92;7.93;;;;;;;17.46;41.73;95093.94;5073352;28;20032;-70
2022/10/15 10:39:14;;;;;;;5.32;3.85;;;;;;;17.20;40.89;95085.22;5091213;28;20028;-70
2022/10/15 10:42:22;;;;;;;5.97;3.83;;;;;;;16.81;42.16;95087.56;5090075;28;20425;-69
2022/10/15 10:44:48;;;;;;;7.15;4.18;;;;;;;16.71;41.83;95085.03;5091132;28;20056;-70
2022/10/15 10:47:15;;;;;;;3.55;2.92;;;;;;;16.47;42.00;95093.63;5073126;28;20039;-70
2022/10/15 10:49:45;;;;;;;5.78;3.25;;;;;;;16.63;42.32;95084.16;5073553;28;20085;-70
2022/10/15 10:52:37;;;;;;;7.07;3.40;;;;;;;16.58;42.23;95094.34;5073512;28;20036;-70
2022/10/15 10:55:20;;;;;;;4.40;3.22;;;;;;;16.66;42.22;95084.69;5122739;27;20040;-70
2022/10/15 10:57:56;;;;;;;3.80;3.00;;;;;;;16.19;42.99;95076.44;5089961;28;20034;-70
2022/10/15 11:00:41;;;;;;;5.68;3.80;;;;;;;16.48;42.95;95076.91;5090040;28;20051;-70
2022/10/15 11:03:25;;;;;;;6.05;3.40;;;;;;;16.71;43.15;95078.97;5073834;28;20061;-69
2022/10/15 11:05:54;;;;;;;6.13;3.80;;;;;;;16.89;42.86;95071.03;5090946;28;20086;-70
2022/10/15 11:08:35;;;;;;;7.70;4.72;;;;;;;17.08;42.55;95081.25;5073257;28;20421;-70
2022/10/15 11:11:14;;;;;;;4.53;3.58;;;;;;;17.15;41.97;95071.75;5073719;28;20030;-70
2022/10/15 11:13:57;;;;;;;5.50;3.75;;;;;;;17.29;41.44;95070.28;5091412;28;20031;-70
2022/10/15 11:16:44;;;;;;;4.10;3.13;;;;;;;17.53;40.45;95068.69;5090829;28;20103;-71
2022/10/15 11:19:28;;;;;;;5.63;3.40;;;;;;;17.59;41.32;95062.78;5089718;28;20048;-70
2022/10/15 11:22:02;;;;;;;5.18;3.30;;;;;;;17.59;40.90;95068.84;5090838;28;20505;-70
2022/10/15 11:24:55;;;;;;;3.97;3.17;;;;;;;17.31;41.08;95043.88;5090786;28;20024;-70
2022/10/15 11:27:42;;;;;;;4.68;3.15;;;;;;;16.94;41.49;95072.19;5081578;28;20040;-70
2022/10/15 11:30:26;;;;;;;4.55;3.40;;;;;;;16.64;42.64;95076.16;5090814;28;20028;-70
2022/10/15 11:33:06;;;;;;;5.72;3.20;;;;;;;16.59;43.00;95069.75;5090900;28;20032;-70
2022/10/15 11:35:54;;;;;;;4.70;3.40;;;;;;;16.51;42.39;95078.38;5091063;28;20028;-69
2022/10/15 11:38:38;;;;;;;4.90;3.40;;;;;;;16.41;43.05;95070.66;5089481;28;20520;-69
2022/10/15 11:41:28;;;;;;;4.28;3.17;;;;;;;16.51;43.44;95079.19;5090693;28;20024;-69
2022/10/15 11:43:53;;;;;;;5.50;3.10;;;;;;;16.51;43.43;95068.72;5090550;28;20084;-70